Vicente Ramírez

Olheiro - Gijón
25 Nov 2027
Quinta-feira
Processo

Personalidade

Adaptabilidade (4) Ambição (9) Controvérsia (9) Lealdade (8) Pressão (19) Profissionalismo (19) Espírito Esportivo (17) Temperamento (9)

Perfil

Estilo de Treinamento Democrático
Licença Continental B
Determinação 4
Gestão de Pessoas 9
Motivação 12
Disciplina 12
Satisfação no Trabalho
100%
Fadiga
0%
Função Olheiro
Salário 33.6K p/s
Contrato 14.03.2030

Desempenho

Comportamento Bom
Eficácia do Treinamento
58%
Desenvolvimento do Jogador
30%
Prevenção de Lesões
45%
Implementação Tática
65%

Eventos Recentes

Participou de uma reunião de recrutamento 7d atrás
Observou uma partida 7d atrás
Participou de uma reunião de recrutamento 14d atrás
Observou uma partida 14d atrás
Observou uma partida 14d atrás
Participou de uma reunião de recrutamento 21d atrás
Participou de uma reunião de recrutamento 28d atrás
Observou uma partida 28d atrás

Monitorando agora

110
Jogador Clube Status Habilidade Confiança Observado Última observação Último voto
Ramiro Buratti River Plate Perdido 87 / 102 40% 1 14.06.2027 -
David Larrubia Málaga Ativo 138 / 133 40% 3 30.05.2027 -
Caleb Yirenkyi Coventry City Ativo 140 / 138 40% 3 28.05.2027 -
Yusi Alavés Ativo 117 / 133 40% 3 26.05.2027 -
Adrián Niño Málaga Ativo 126 / 125 40% 3 26.05.2027 -
Endrick Real Madrid Ativo 156 / 153 40% 2 26.05.2027 -
Urko Izeta Cádiz Ativo 119 / 131 40% 1 26.05.2027 -
Kevin Vazquez Cruz Azul Ativo 156 / 140 40% 5 23.05.2027 -
Andrés Martín Racing Santander Ativo 126 / 131 40% 3 23.05.2027 -
Lander Astiazarán Real Sociedad Ativo 109 / 109 67% 10 22.05.2027 -
Jesús Rodríguez Como Ativo 144 / 145 40% 1 22.05.2027 -
Jan Virgili Club Brugge Ativo 120 / 135 40% 4 20.05.2027 -
Yussif Saidu Zaragoza Ativo 118 / 130 40% 1 20.05.2027 -
Iker Benito Queretaro Ativo 109 / 125 40% 1 19.05.2027 -
Rodrigo Mora AS Roma Ativo 141 / 144 40% 2 17.05.2027 -
Senny Mayulu Paris Saint-Germain Ativo 144 / 150 40% 1 16.05.2027 -
Samir El Mourabet RC Strasbourg Ativo 116 / 126 40% 1 14.05.2027 -
Ethan Williams Peterborough United Ativo 105 / 119 40% 4 13.05.2027 -
Jonathan Dubasin Osasuna Ativo 149 / 145 40% 1 13.05.2027 -
Matt O'Riley Brighton Ativo 141 / 149 40% 1 13.05.2027 -
Shea Lacey Wolverhampton Ativo 110 / 124 40% 1 11.05.2027 -
Joel McGregor Swindon Town Ativo 92 / 99 40% 2 10.05.2027 -
Jon Garro Real Sociedad Ativo 101 / 96 40% 2 10.05.2027 -
Izan Merino Málaga Ativo 121 / 126 40% 2 10.05.2027 -
Cyriaque Irié VfL Wolfsburg Ativo 121 / 123 40% 2 08.05.2027 -
Christ Inao Oulaï Fiorentina Ativo 144 / 141 40% 1 07.05.2027 -
Warren Zaïre-Emery Paris Saint-Germain Ativo 163 / 161 40% 5 06.05.2027 -
Jofre Torrents Ajax Ativo 126 / 127 40% 3 06.05.2027 -
Ali Ahmed Norwich City Ativo 121 / 126 40% 1 05.05.2027 -
Othmane Maamma Watford Ativo 116 / 132 40% 5 02.05.2027 -
Matías Gómez Granada Ativo 117 / 120 40% 2 02.05.2027 -
Diego Lainez Tigres Ativo 116 / 131 40% 3 01.05.2027 -
Marcel Ruiz RC Lens Ativo 143 / 142 40% 2 01.05.2027 -
Monty Batlhabane Polokwane City Ativo 95 / 95 40% 1 27.04.2027 -
Aimar Osasuna Ativo 144 / 147 40% 1 27.04.2027 -
Tani Oluwaseyi Villarreal Ativo 143 / 142 40% 2 22.04.2027 -
Lucas Høgsberg RC Strasbourg Ativo 145 / 144 40% 1 20.04.2027 -
Josh King Chelsea Ativo 149 / 146 40% 1 19.04.2027 -
David Ozoh Derby County Ativo 123 / 124 40% 1 16.04.2027 -
Oscar Schwartau Norwich City Ativo 123 / 126 40% 1 15.04.2027 -
Finn Azaz Southampton Ativo 136 / 130 40% 1 14.04.2027 -
Thulani Dala Platinum Stars Ativo 83 / 98 40% 2 11.04.2027 -
Hugo Álvarez Celta Ativo 157 / 141 40% 1 09.04.2027 -
Bernardes Benfica Ativo 86 / 102 40% 1 06.04.2027 -
André Miranda Porto Ativo 102 / 105 40% 1 05.04.2027 -
Jayden Luker Barnet Ativo 106 / 100 40% 1 04.04.2027 -
Riley Owen Trento Ativo 104 / 108 40% 1 04.04.2027 -
Erick Sánchez OGC Nice Ativo 132 / 137 40% 2 01.04.2027 -
Pol Lozano Espanyol Ativo 131 / 140 40% 1 01.04.2027 -
Ryan Sessegnon Fulham Ativo 158 / 143 40% 2 30.03.2027 -
Emi Rodriguez Leon Ativo 134 / 117 40% 1 30.03.2027 -
Louis Leroux FC Nantes Ativo 114 / 129 40% 1 26.03.2027 -
Olívio Tomé Benfica Ativo 115 / 111 40% 1 26.03.2027 -
Javi Martínez Eibar Ativo 131 / 127 40% 1 26.03.2027 -
Carlos Vicente Birmingham Ativo 136 / 138 40% 1 25.03.2027 -
Jayden Addai Como Ativo 142 / 135 40% 1 22.03.2027 -
Ozziel Herrera Tigres Ativo 142 / 131 40% 1 21.03.2027 -
Mfundo Vilakazi Kaizer Chiefs Ativo 92 / 117 40% 2 20.03.2027 -
Kevin Fulham Ativo 154 / 152 40% 1 18.03.2027 -
Jan Bürger Gillingham Ativo 115 / 116 40% 1 17.03.2027 -
Christos Mouzakitis Hull City Ativo 121 / 140 40% 2 16.03.2027 -
Matvey Kislyak CSKA Moscow Ativo 123 / 141 40% 1 15.03.2027 -
Khalis Merah Toulouse FC Ativo 108 / 133 40% 1 14.03.2027 -
Martim Cunha Porto Ativo 106 / 110 40% 1 12.03.2027 -
Davide Bartesaghi AC Milan Ativo 134 / 134 40% 1 11.03.2027 -
Daniel Vernattus Metalist Ativo 81 / 95 40% 1 11.03.2027 -
Duk Atlas Ativo 106 / 109 40% 1 09.03.2027 -
Ernie Weaver AFC Wimbledon Ativo 114 / 118 40% 1 08.03.2027 -
Percy Jali Free State Stars Ativo 92 / 96 40% 1 08.03.2027 -
Marquinhos Spartak Moscow Ativo 134 / 128 40% 1 03.03.2027 -
Daniel Arcila Leon Ativo 108 / 112 40% 1 03.03.2027 -
Félix Lemaréchal Club Brugge Ativo 128 / 136 40% 1 02.03.2027 -
Isaiah Jones Luton Town Ativo 124 / 121 40% 1 02.03.2027 -
Tshepang Moremi Orlando Pirates Ativo 130 / 109 40% 1 01.03.2027 -
Tyrhys Dolan Espanyol Ativo 134 / 141 40% 1 01.03.2027 -
Jonás Luna Santa Clara Ativo 119 / 126 40% 2 28.02.2027 -
James Dornelly Peterborough United Ativo 91 / 112 40% 1 23.02.2027 -
Pablo García Racing Santander Ativo 131 / 130 40% 1 23.02.2027 -
David Mella Deportivo La Coruña Ativo 134 / 129 40% 1 14.02.2027 -
Kauã Elias Anderlecht Ativo 124 / 135 40% 1 09.02.2027 -
Gift Hlatshwayo Free State Stars Perdido 100 / 105 40% 1 12.01.2027 -
Didier Mercier Chamois Niortais Ativo 104 / 120 40% 1 12.01.2027 -
Malick Fofana Sunderland Ativo 142 / 146 40% 1 31.12.2026 -
Juanlu Bournemouth Ativo 142 / 149 40% 1 23.12.2026 -
Christian Krasnodar Ativo 116 / 135 40% 1 21.12.2026 -
Adam Wharton Crystal Palace Ativo 154 / 156 40% 1 20.12.2026 -
Joaquim Tigres Ativo 149 / 123 40% 2 19.12.2026 -
Ousmane Diomande Nottingham Forest Ativo 160 / 152 40% 1 19.12.2026 -
Santiago Simón Toluca Ativo 114 / 123 40% 1 16.12.2026 -
Tyler Adams Bournemouth Ativo 156 / 148 40% 1 10.12.2026 -
Omar El Hilali Espanyol Ativo 153 / 151 40% 1 09.12.2026 -
Facundo Miño Deportivo Riestra Ativo 108 / 117 40% 1 09.12.2026 -
Diego Campillo Guadalajara Ativo 110 / 124 40% 1 07.12.2026 -
Richard Ledezma Guadalajara Ativo 143 / 140 40% 2 06.12.2026 -
Pedro Vite Pumas UNAM Ativo 131 / 125 40% 3 03.12.2026 -
Noah Sadiki Sunderland Ativo 150 / 147 40% 1 02.12.2026 -
José Castillo Guadalajara Ativo 108 / 124 40% 1 02.12.2026 -
Alex Vigo Independiente Rivadavia Ativo 108 / 115 40% 1 01.12.2026 -
Aarón Mejía Tijuana Ativo 121 / 124 40% 1 01.12.2026 -
Joaquín García Vélez Ativo 120 / 122 40% 1 28.11.2026 -
Fran Beltrán Girona Ativo 137 / 143 40% 1 28.11.2026 -
Omar Campos Cruz Azul Ativo 105 / 127 40% 1 17.11.2026 -
Víctor Guzmán Monterrey Ativo 140 / 133 40% 1 05.11.2026 -
Ramón Juárez Club America Ativo 154 / 129 40% 1 05.11.2026 -
Nazareno Colombo Racing Club Ativo 131 / 122 40% 1 04.11.2026 -
James Cardona La Equidad Ativo 145 / 138 40% 1 04.11.2026 -
Pedro Porro Tottenham Ativo 147 / 147 40% 1 02.11.2026 -
Ramiro Hernandes Belgrano Ativo 129 / 129 40% 1 25.10.2026 -
Marcos Cuenca Zaragoza Ativo 116 / 109 44% 1 10.08.2026 -
Yann Bodiger Ceuta Ativo 106 / 112 44% 1 03.08.2026 -